sensor_id;sensor_type;location;lat;lon;timestamp;temperature;humidity
152;DHT22;68;48.792;9.164;2023-07-09T00:01:42;23.20;74.00
152;DHT22;68;48.792;9.164;2023-07-09T00:04:09;23.10;74.20
152;DHT22;68;48.792;9.164;2023-07-09T00:06:37;23.10;74.40
152;DHT22;68;48.792;9.164;2023-07-09T00:09:03;23.00;74.80
152;DHT22;68;48.792;9.164;2023-07-09T00:11:31;23.00;75.10
152;DHT22;68;48.792;9.164;2023-07-09T00:13:58;23.00;75.10
152;DHT22;68;48.792;9.164;2023-07-09T00:16:25;22.90;75.40
152;DHT22;68;48.792;9.164;2023-07-09T00:18:54;22.90;75.40
152;DHT22;68;48.792;9.164;2023-07-09T00:23:49;22.80;75.70
152;DHT22;68;48.792;9.164;2023-07-09T00:26:17;22.80;76.00
152;DHT22;68;48.792;9.164;2023-07-09T00:31:14;22.80;75.90
152;DHT22;68;48.792;9.164;2023-07-09T00:33:42;22.70;76.30
152;DHT22;68;48.792;9.164;2023-07-09T00:36:14;22.70;76.50
152;DHT22;68;48.792;9.164;2023-07-09T00:38:41;22.70;76.70
152;DHT22;68;48.792;9.164;2023-07-09T00:41:15;22.60;76.80
152;DHT22;68;48.792;9.164;2023-07-09T00:43:45;22.60;77.20
152;DHT22;68;48.792;9.164;2023-07-09T00:49:26;22.60;77.70
152;DHT22;68;48.792;9.164;2023-07-09T00:51:56;22.50;78.40
152;DHT22;68;48.792;9.164;2023-07-09T00:54:28;22.40;78.50
152;DHT22;68;48.792;9.164;2023-07-09T00:56:59;22.40;78.60
152;DHT22;68;48.792;9.164;2023-07-09T00:59:28;22.40;78.60
152;DHT22;68;48.792;9.164;2023-07-09T01:01:57;22.40;78.60
152;DHT22;68;48.792;9.164;2023-07-09T01:04:26;22.40;78.70
152;DHT22;68;48.792;9.164;2023-07-09T01:06:56;22.30;78.60
152;DHT22;68;48.792;9.164;2023-07-09T01:09:24;22.30;78.90
152;DHT22;68;48.792;9.164;2023-07-09T01:11:51;22.30;78.50
152;DHT22;68;48.792;9.164;2023-07-09T01:16:52;22.30;78.50
152;DHT22;68;48.792;9.164;2023-07-09T01:19:23;22.30;78.60
152;DHT22;68;48.792;9.164;2023-07-09T01:21:53;22.20;78.50
152;DHT22;68;48.792;9.164;2023-07-09T01:24:51;22.20;78.70
152;DHT22;68;48.792;9.164;2023-07-09T01:27:20;22.20;78.80
152;DHT22;68;48.792;9.164;2023-07-09T01:29:48;22.20;78.80
152;DHT22;68;48.792;9.164;2023-07-09T01:32:16;22.20;79.00
152;DHT22;68;48.792;9.164;2023-07-09T01:34:44;22.10;79.20
152;DHT22;68;48.792;9.164;2023-07-09T01:37:15;22.10;79.40
152;DHT22;68;48.792;9.164;2023-07-09T01:39:41;22.00;79.50
152;DHT22;68;48.792;9.164;2023-07-09T01:42:09;22.00;79.60
152;DHT22;68;48.792;9.164;2023-07-09T01:47:04;22.00;80.00
152;DHT22;68;48.792;9.164;2023-07-09T01:49:31;21.90;80.40
152;DHT22;68;48.792;9.164;2023-07-09T01:52:00;21.90;80.90
152;DHT22;68;48.792;9.164;2023-07-09T01:54:30;21.90;80.80
152;DHT22;68;48.792;9.164;2023-07-09T01:57:13;22.00;81.10
152;DHT22;68;48.792;9.164;2023-07-09T01:59:40;22.00;80.50
152;DHT22;68;48.792;9.164;2023-07-09T02:02:10;21.90;81.00
152;DHT22;68;48.792;9.164;2023-07-09T02:04:40;21.80;81.30
152;DHT22;68;48.792;9.164;2023-07-09T02:07:08;21.70;80.90
152;DHT22;68;48.792;9.164;2023-07-09T02:09:36;21.70;80.40
152;DHT22;68;48.792;9.164;2023-07-09T02:12:04;21.60;80.40
152;DHT22;68;48.792;9.164;2023-07-09T02:14:31;21.60;80.40
152;DHT22;68;48.792;9.164;2023-07-09T02:16:58;21.60;80.20
152;DHT22;68;48.792;9.164;2023-07-09T02:19:24;21.50;80.40
152;DHT22;68;48.792;9.164;2023-07-09T02:24:19;21.60;79.70
152;DHT22;68;48.792;9.164;2023-07-09T02:26:51;21.70;79.30
152;DHT22;68;48.792;9.164;2023-07-09T02:29:18;21.80;78.90
152;DHT22;68;48.792;9.164;2023-07-09T02:31:45;21.80;78.80
152;DHT22;68;48.792;9.164;2023-07-09T02:34:12;21.80;78.70
152;DHT22;68;48.792;9.164;2023-07-09T02:36:38;21.90;78.70
152;DHT22;68;48.792;9.164;2023-07-09T02:39:08;21.80;79.10
152;DHT22;68;48.792;9.164;2023-07-09T02:41:35;21.90;79.30
152;DHT22;68;48.792;9.164;2023-07-09T02:44:03;21.70;79.30
152;DHT22;68;48.792;9.164;2023-07-09T02:46:30;21.60;79.60
152;DHT22;68;48.792;9.164;2023-07-09T02:48:57;21.50;80.00
152;DHT22;68;48.792;9.164;2023-07-09T02:51:24;21.40;80.10
152;DHT22;68;48.792;9.164;2023-07-09T02:53:52;21.40;80.30
152;DHT22;68;48.792;9.164;2023-07-09T02:56:19;21.40;80.20
152;DHT22;68;48.792;9.164;2023-07-09T02:58:46;21.40;80.50
152;DHT22;68;48.792;9.164;2023-07-09T03:01:15;21.40;80.60
152;DHT22;68;48.792;9.164;2023-07-09T03:03:41;21.50;80.50
152;DHT22;68;48.792;9.164;2023-07-09T03:06:09;21.40;80.40
152;DHT22;68;48.792;9.164;2023-07-09T03:08:36;21.40;80.90
152;DHT22;68;48.792;9.164;2023-07-09T03:11:09;21.20;81.10
152;DHT22;68;48.792;9.164;2023-07-09T03:13:37;21.20;81.30
152;DHT22;68;48.792;9.164;2023-07-09T03:18:33;21.20;81.70
152;DHT22;68;48.792;9.164;2023-07-09T03:21:00;21.20;81.60
152;DHT22;68;48.792;9.164;2023-07-09T03:25:55;21.20;82.20
152;DHT22;68;48.792;9.164;2023-07-09T03:28:23;21.30;82.50
152;DHT22;68;48.792;9.164;2023-07-09T03:30:52;21.30;82.00
152;DHT22;68;48.792;9.164;2023-07-09T03:33:20;21.30;82.00
152;DHT22;68;48.792;9.164;2023-07-09T03:35:49;21.30;82.20
152;DHT22;68;48.792;9.164;2023-07-09T03:40:43;21.00;82.90
152;DHT22;68;48.792;9.164;2023-07-09T03:43:10;20.90;82.90
152;DHT22;68;48.792;9.164;2023-07-09T03:45:38;20.90;83.20
152;DHT22;68;48.792;9.164;2023-07-09T03:48:05;20.90;83.20
152;DHT22;68;48.792;9.164;2023-07-09T03:50:32;20.80;83.10
152;DHT22;68;48.792;9.164;2023-07-09T03:53:00;20.80;83.30
152;DHT22;68;48.792;9.164;2023-07-09T03:55:27;20.90;84.10
152;DHT22;68;48.792;9.164;2023-07-09T03:57:54;21.00;83.30
152;DHT22;68;48.792;9.164;2023-07-09T04:00:22;21.10;83.40
152;DHT22;68;48.792;9.164;2023-07-09T04:02:49;21.50;81.50
152;DHT22;68;48.792;9.164;2023-07-09T04:05:16;21.90;79.30
152;DHT22;68;48.792;9.164;2023-07-09T04:07:43;22.00;79.20
152;DHT22;68;48.792;9.164;2023-07-09T04:10:11;22.10;78.80
152;DHT22;68;48.792;9.164;2023-07-09T04:12:38;22.00;79.40
152;DHT22;68;48.792;9.164;2023-07-09T04:15:06;22.00;80.10
152;DHT22;68;48.792;9.164;2023-07-09T04:17:33;22.00;80.20
152;DHT22;68;48.792;9.164;2023-07-09T04:20:00;21.80;81.10
152;DHT22;68;48.792;9.164;2023-07-09T04:22:31;21.60;82.30
152;DHT22;68;48.792;9.164;2023-07-09T04:24:58;21.50;82.70
152;DHT22;68;48.792;9.164;2023-07-09T04:27:26;21.20;83.60
152;DHT22;68;48.792;9.164;2023-07-09T04:29:54;21.10;83.70
152;DHT22;68;48.792;9.164;2023-07-09T04:32:21;20.80;84.40
152;DHT22;68;48.792;9.164;2023-07-09T04:34:48;20.80;85.00
152;DHT22;68;48.792;9.164;2023-07-09T04:37:16;20.70;85.30
152;DHT22;68;48.792;9.164;2023-07-09T04:39:43;20.70;85.30
152;DHT22;68;48.792;9.164;2023-07-09T04:42:11;20.70;85.60
152;DHT22;68;48.792;9.164;2023-07-09T04:44:40;20.70;85.40
152;DHT22;68;48.792;9.164;2023-07-09T04:47:07;20.80;85.30
152;DHT22;68;48.792;9.164;2023-07-09T04:49:34;20.90;85.40
152;DHT22;68;48.792;9.164;2023-07-09T04:52:01;20.90;85.50
152;DHT22;68;48.792;9.164;2023-07-09T04:54:27;20.90;85.30
152;DHT22;68;48.792;9.164;2023-07-09T04:56:56;21.10;85.10
152;DHT22;68;48.792;9.164;2023-07-09T04:59:24;21.40;84.10
152;DHT22;68;48.792;9.164;2023-07-09T05:01:52;21.50;83.60
152;DHT22;68;48.792;9.164;2023-07-09T05:04:19;21.60;84.20
152;DHT22;68;48.792;9.164;2023-07-09T05:06:46;21.90;84.00
152;DHT22;68;48.792;9.164;2023-07-09T05:09:13;22.10;83.20
152;DHT22;68;48.792;9.164;2023-07-09T05:14:06;22.40;81.40
152;DHT22;68;48.792;9.164;2023-07-09T05:16:33;22.50;80.30
152;DHT22;68;48.792;9.164;2023-07-09T05:19:01;22.70;79.80
152;DHT22;68;48.792;9.164;2023-07-09T05:21:28;22.80;79.40
152;DHT22;68;48.792;9.164;2023-07-09T05:23:55;22.80;78.90
152;DHT22;68;48.792;9.164;2023-07-09T05:26:22;22.80;78.90
152;DHT22;68;48.792;9.164;2023-07-09T05:28:48;22.60;78.20
152;DHT22;68;48.792;9.164;2023-07-09T05:31:15;22.70;78.20
152;DHT22;68;48.792;9.164;2023-07-09T05:33:42;23.00;77.10
152;DHT22;68;48.792;9.164;2023-07-09T05:36:10;22.90;77.00
152;DHT22;68;48.792;9.164;2023-07-09T05:38:41;22.60;78.00
152;DHT22;68;48.792;9.164;2023-07-09T05:41:09;22.70;78.30
152;DHT22;68;48.792;9.164;2023-07-09T05:43:35;22.80;77.20
152;DHT22;68;48.792;9.164;2023-07-09T05:46:04;22.90;77.80
152;DHT22;68;48.792;9.164;2023-07-09T05:48:31;22.90;77.10
152;DHT22;68;48.792;9.164;2023-07-09T05:50:58;23.10;76.80
152;DHT22;68;48.792;9.164;2023-07-09T05:53:27;23.30;76.50
152;DHT22;68;48.792;9.164;2023-07-09T05:55:54;23.30;76.90
152;DHT22;68;48.792;9.164;2023-07-09T05:58:21;23.40;76.50
152;DHT22;68;48.792;9.164;2023-07-09T06:00:50;23.30;76.30
152;DHT22;68;48.792;9.164;2023-07-09T06:03:19;23.30;77.20
152;DHT22;68;48.792;9.164;2023-07-09T06:05:45;23.50;75.40
152;DHT22;68;48.792;9.164;2023-07-09T06:08:13;23.70;75.00
152;DHT22;68;48.792;9.164;2023-07-09T06:10:50;23.90;74.80
152;DHT22;68;48.792;9.164;2023-07-09T06:13:17;24.00;74.50
152;DHT22;68;48.792;9.164;2023-07-09T06:15:46;24.00;74.40
152;DHT22;68;48.792;9.164;2023-07-09T06:18:13;24.00;76.40
152;DHT22;68;48.792;9.164;2023-07-09T06:20:40;23.90;75.70
152;DHT22;68;48.792;9.164;2023-07-09T06:23:06;24.00;75.30
152;DHT22;68;48.792;9.164;2023-07-09T06:25:33;24.10;74.60
152;DHT22;68;48.792;9.164;2023-07-09T06:28:01;24.20;74.70
152;DHT22;68;48.792;9.164;2023-07-09T06:30:28;24.20;74.60
152;DHT22;68;48.792;9.164;2023-07-09T06:32:55;24.30;74.70
152;DHT22;68;48.792;9.164;2023-07-09T06:35:22;24.40;74.10
152;DHT22;68;48.792;9.164;2023-07-09T06:37:49;24.40;74.40
152;DHT22;68;48.792;9.164;2023-07-09T06:40:15;24.50;74.90
152;DHT22;68;48.792;9.164;2023-07-09T06:42:43;24.60;73.30
152;DHT22;68;48.792;9.164;2023-07-09T06:45:11;24.60;74.10
152;DHT22;68;48.792;9.164;2023-07-09T06:47:38;24.80;74.00
152;DHT22;68;48.792;9.164;2023-07-09T06:50:06;24.90;72.20
152;DHT22;68;48.792;9.164;2023-07-09T06:52:33;24.90;73.00
152;DHT22;68;48.792;9.164;2023-07-09T06:54:59;24.90;72.50
152;DHT22;68;48.792;9.164;2023-07-09T06:57:26;25.20;73.20
152;DHT22;68;48.792;9.164;2023-07-09T06:59:53;25.20;72.00
152;DHT22;68;48.792;9.164;2023-07-09T07:02:21;25.30;71.80
152;DHT22;68;48.792;9.164;2023-07-09T07:04:48;25.50;72.00
152;DHT22;68;48.792;9.164;2023-07-09T07:07:15;25.40;71.60
152;DHT22;68;48.792;9.164;2023-07-09T07:09:41;25.30;71.90
152;DHT22;68;48.792;9.164;2023-07-09T07:12:09;25.40;73.00
152;DHT22;68;48.792;9.164;2023-07-09T07:14:36;25.50;72.90
152;DHT22;68;48.792;9.164;2023-07-09T07:17:03;25.70;73.00
152;DHT22;68;48.792;9.164;2023-07-09T07:19:31;25.80;71.20
152;DHT22;68;48.792;9.164;2023-07-09T07:21:58;25.80;71.50
152;DHT22;68;48.792;9.164;2023-07-09T07:24:24;25.90;72.30
152;DHT22;68;48.792;9.164;2023-07-09T07:26:51;25.90;71.20
152;DHT22;68;48.792;9.164;2023-07-09T07:29:18;25.90;71.70
152;DHT22;68;48.792;9.164;2023-07-09T07:31:45;26.10;71.30
152;DHT22;68;48.792;9.164;2023-07-09T07:34:11;26.10;70.90
152;DHT22;68;48.792;9.164;2023-07-09T07:36:39;26.10;72.20
152;DHT22;68;48.792;9.164;2023-07-09T07:39:06;26.00;71.40
152;DHT22;68;48.792;9.164;2023-07-09T07:41:33;26.00;71.80
152;DHT22;68;48.792;9.164;2023-07-09T07:44:00;26.10;71.00
152;DHT22;68;48.792;9.164;2023-07-09T07:46:26;26.10;71.70
152;DHT22;68;48.792;9.164;2023-07-09T07:48:54;26.00;71.80
152;DHT22;68;48.792;9.164;2023-07-09T07:51:21;26.00;71.50
152;DHT22;68;48.792;9.164;2023-07-09T07:53:49;26.00;72.20
152;DHT22;68;48.792;9.164;2023-07-09T07:56:16;26.10;71.70
152;DHT22;68;48.792;9.164;2023-07-09T07:58:43;26.50;70.00
152;DHT22;68;48.792;9.164;2023-07-09T08:01:09;26.40;70.20
152;DHT22;68;48.792;9.164;2023-07-09T08:03:36;26.50;69.00
152;DHT22;68;48.792;9.164;2023-07-09T08:06:03;26.90;68.90
152;DHT22;68;48.792;9.164;2023-07-09T08:08:30;27.00;68.80
152;DHT22;68;48.792;9.164;2023-07-09T08:11:02;26.70;70.00
152;DHT22;68;48.792;9.164;2023-07-09T08:13:30;26.70;70.10
152;DHT22;68;48.792;9.164;2023-07-09T08:15:58;26.90;71.10
152;DHT22;68;48.792;9.164;2023-07-09T08:18:24;27.00;68.10
152;DHT22;68;48.792;9.164;2023-07-09T08:20:51;27.20;66.60
152;DHT22;68;48.792;9.164;2023-07-09T08:23:18;27.30;67.70
152;DHT22;68;48.792;9.164;2023-07-09T08:25:52;27.40;67.00
152;DHT22;68;48.792;9.164;2023-07-09T08:28:20;27.50;65.60
152;DHT22;68;48.792;9.164;2023-07-09T08:30:47;27.60;66.30
152;DHT22;68;48.792;9.164;2023-07-09T08:33:14;27.80;64.70
152;DHT22;68;48.792;9.164;2023-07-09T08:35:42;27.80;64.10
152;DHT22;68;48.792;9.164;2023-07-09T08:38:09;27.80;64.90
152;DHT22;68;48.792;9.164;2023-07-09T08:40:39;27.90;63.20
152;DHT22;68;48.792;9.164;2023-07-09T08:43:14;28.10;64.70
152;DHT22;68;48.792;9.164;2023-07-09T08:45:56;28.10;61.70
152;DHT22;68;48.792;9.164;2023-07-09T08:48:30;28.00;62.60
152;DHT22;68;48.792;9.164;2023-07-09T08:51:02;28.30;61.70
152;DHT22;68;48.792;9.164;2023-07-09T08:53:34;28.50;62.70
152;DHT22;68;48.792;9.164;2023-07-09T08:56:03;28.70;63.70
152;DHT22;68;48.792;9.164;2023-07-09T08:58:31;29.10;61.40
152;DHT22;68;48.792;9.164;2023-07-09T09:01:01;29.40;59.80
152;DHT22;68;48.792;9.164;2023-07-09T09:03:34;29.60;60.50
152;DHT22;68;48.792;9.164;2023-07-09T09:06:10;29.70;59.80
152;DHT22;68;48.792;9.164;2023-07-09T09:08:40;29.80;59.70
152;DHT22;68;48.792;9.164;2023-07-09T09:11:13;29.90;58.80
152;DHT22;68;48.792;9.164;2023-07-09T09:13:41;30.20;59.40
152;DHT22;68;48.792;9.164;2023-07-09T09:16:21;30.30;57.80
152;DHT22;68;48.792;9.164;2023-07-09T09:18:49;29.80;58.70
152;DHT22;68;48.792;9.164;2023-07-09T09:21:21;30.00;59.30
152;DHT22;68;48.792;9.164;2023-07-09T09:23:50;30.20;59.10
152;DHT22;68;48.792;9.164;2023-07-09T09:26:22;30.50;59.10
152;DHT22;68;48.792;9.164;2023-07-09T09:28:50;30.60;58.60
152;DHT22;68;48.792;9.164;2023-07-09T09:31:19;30.60;59.30
152;DHT22;68;48.792;9.164;2023-07-09T09:33:47;30.70;58.50
152;DHT22;68;48.792;9.164;2023-07-09T09:36:17;30.80;57.90
152;DHT22;68;48.792;9.164;2023-07-09T09:38:45;30.80;55.90
152;DHT22;68;48.792;9.164;2023-07-09T09:41:16;30.90;57.30
152;DHT22;68;48.792;9.164;2023-07-09T09:43:44;31.10;57.20
152;DHT22;68;48.792;9.164;2023-07-09T09:46:19;30.90;56.00
152;DHT22;68;48.792;9.164;2023-07-09T09:48:48;31.00;55.00
152;DHT22;68;48.792;9.164;2023-07-09T09:51:16;31.20;55.40
152;DHT22;68;48.792;9.164;2023-07-09T09:53:47;31.50;54.20
152;DHT22;68;48.792;9.164;2023-07-09T09:56:19;31.70;52.90
152;DHT22;68;48.792;9.164;2023-07-09T09:58:50;31.80;52.60
152;DHT22;68;48.792;9.164;2023-07-09T10:01:19;31.80;53.40
152;DHT22;68;48.792;9.164;2023-07-09T10:03:49;31.90;53.10
152;DHT22;68;48.792;9.164;2023-07-09T10:06:19;32.10;51.00
152;DHT22;68;48.792;9.164;2023-07-09T10:08:54;32.20;50.70
152;DHT22;68;48.792;9.164;2023-07-09T10:11:28;32.10;48.70
152;DHT22;68;48.792;9.164;2023-07-09T10:16:45;32.50;50.30
152;DHT22;68;48.792;9.164;2023-07-09T10:19:17;32.50;50.30
152;DHT22;68;48.792;9.164;2023-07-09T10:21:56;32.60;49.20
152;DHT22;68;48.792;9.164;2023-07-09T10:24:34;32.60;47.50
152;DHT22;68;48.792;9.164;2023-07-09T10:27:09;32.80;48.00
152;DHT22;68;48.792;9.164;2023-07-09T10:29:47;33.10;47.60
152;DHT22;68;48.792;9.164;2023-07-09T10:32:31;33.30;45.10
152;DHT22;68;48.792;9.164;2023-07-09T10:35:04;33.20;44.40
152;DHT22;68;48.792;9.164;2023-07-09T10:38:00;33.20;43.60
152;DHT22;68;48.792;9.164;2023-07-09T10:40:38;33.00;45.40
152;DHT22;68;48.792;9.164;2023-07-09T10:43:11;33.20;44.80
152;DHT22;68;48.792;9.164;2023-07-09T10:45:41;33.10;43.70
152;DHT22;68;48.792;9.164;2023-07-09T10:48:13;33.30;44.70
152;DHT22;68;48.792;9.164;2023-07-09T10:50:45;33.30;43.70
152;DHT22;68;48.792;9.164;2023-07-09T10:53:29;33.30;44.40
152;DHT22;68;48.792;9.164;2023-07-09T10:56:00;33.50;43.50
152;DHT22;68;48.792;9.164;2023-07-09T10:58:33;33.60;43.10
152;DHT22;68;48.792;9.164;2023-07-09T11:01:02;33.70;44.20
152;DHT22;68;48.792;9.164;2023-07-09T11:03:38;33.90;43.30
152;DHT22;68;48.792;9.164;2023-07-09T11:06:15;33.80;43.20
152;DHT22;68;48.792;9.164;2023-07-09T11:08:44;33.80;43.70
152;DHT22;68;48.792;9.164;2023-07-09T11:11:20;33.70;42.10
152;DHT22;68;48.792;9.164;2023-07-09T11:13:53;33.70;42.50
152;DHT22;68;48.792;9.164;2023-07-09T11:16:27;33.90;43.10
152;DHT22;68;48.792;9.164;2023-07-09T11:18:59;34.10;42.40
152;DHT22;68;48.792;9.164;2023-07-09T11:21:26;34.20;42.00
152;DHT22;68;48.792;9.164;2023-07-09T11:23:55;34.30;40.00
152;DHT22;68;48.792;9.164;2023-07-09T11:26:26;34.40;41.30
152;DHT22;68;48.792;9.164;2023-07-09T11:28:55;34.20;41.20
152;DHT22;68;48.792;9.164;2023-07-09T11:31:24;34.20;41.30
152;DHT22;68;48.792;9.164;2023-07-09T11:34:02;34.30;40.60
152;DHT22;68;48.792;9.164;2023-07-09T11:36:45;34.20;39.80
152;DHT22;68;48.792;9.164;2023-07-09T11:39:19;34.30;40.80
152;DHT22;68;48.792;9.164;2023-07-09T11:41:46;34.50;40.00
152;DHT22;68;48.792;9.164;2023-07-09T11:44:15;34.60;40.00
152;DHT22;68;48.792;9.164;2023-07-09T11:47:00;34.70;39.50
152;DHT22;68;48.792;9.164;2023-07-09T11:49:34;34.80;38.80
152;DHT22;68;48.792;9.164;2023-07-09T11:52:05;34.70;39.40
152;DHT22;68;48.792;9.164;2023-07-09T11:54:34;34.60;38.50
152;DHT22;68;48.792;9.164;2023-07-09T11:57:02;34.60;37.60
152;DHT22;68;48.792;9.164;2023-07-09T11:59:29;34.80;38.80
152;DHT22;68;48.792;9.164;2023-07-09T12:01:56;34.80;41.00
152;DHT22;68;48.792;9.164;2023-07-09T12:04:33;34.90;39.10
152;DHT22;68;48.792;9.164;2023-07-09T12:07:02;35.10;37.50
152;DHT22;68;48.792;9.164;2023-07-09T12:09:36;35.00;36.20
152;DHT22;68;48.792;9.164;2023-07-09T12:12:17;34.90;36.10
152;DHT22;68;48.792;9.164;2023-07-09T12:14:44;34.90;38.70
152;DHT22;68;48.792;9.164;2023-07-09T12:17:11;35.00;37.40
152;DHT22;68;48.792;9.164;2023-07-09T12:19:39;34.90;37.20
152;DHT22;68;48.792;9.164;2023-07-09T12:22:12;34.80;37.10
152;DHT22;68;48.792;9.164;2023-07-09T12:24:43;34.60;36.20
152;DHT22;68;48.792;9.164;2023-07-09T12:27:24;34.60;36.90
152;DHT22;68;48.792;9.164;2023-07-09T12:29:53;35.00;37.50
152;DHT22;68;48.792;9.164;2023-07-09T12:32:21;35.20;36.90
152;DHT22;68;48.792;9.164;2023-07-09T12:34:52;35.30;38.20
152;DHT22;68;48.792;9.164;2023-07-09T12:37:20;35.30;38.00
152;DHT22;68;48.792;9.164;2023-07-09T12:39:49;35.50;37.60
152;DHT22;68;48.792;9.164;2023-07-09T12:42:19;35.50;37.60
152;DHT22;68;48.792;9.164;2023-07-09T12:44:47;35.60;38.60
152;DHT22;68;48.792;9.164;2023-07-09T12:47:15;35.40;34.80
152;DHT22;68;48.792;9.164;2023-07-09T12:49:45;35.10;36.50
152;DHT22;68;48.792;9.164;2023-07-09T12:52:18;35.10;36.30
152;DHT22;68;48.792;9.164;2023-07-09T12:54:55;35.20;37.10
152;DHT22;68;48.792;9.164;2023-07-09T12:57:23;35.20;35.60
152;DHT22;68;48.792;9.164;2023-07-09T12:59:50;35.40;36.40
152;DHT22;68;48.792;9.164;2023-07-09T13:02:21;35.40;35.90
152;DHT22;68;48.792;9.164;2023-07-09T13:04:49;35.50;35.90
152;DHT22;68;48.792;9.164;2023-07-09T13:07:31;35.50;35.50
152;DHT22;68;48.792;9.164;2023-07-09T13:10:07;35.10;34.80
152;DHT22;68;48.792;9.164;2023-07-09T13:15:01;35.10;37.20
152;DHT22;68;48.792;9.164;2023-07-09T13:17:30;35.20;37.50
152;DHT22;68;48.792;9.164;2023-07-09T13:19:58;35.20;36.40
152;DHT22;68;48.792;9.164;2023-07-09T13:22:25;35.40;39.30
152;DHT22;68;48.792;9.164;2023-07-09T13:24:53;35.50;38.50
152;DHT22;68;48.792;9.164;2023-07-09T13:27:20;35.70;39.00
152;DHT22;68;48.792;9.164;2023-07-09T13:29:46;35.70;37.90
152;DHT22;68;48.792;9.164;2023-07-09T13:32:15;35.60;37.60
152;DHT22;68;48.792;9.164;2023-07-09T13:34:42;35.70;38.00
152;DHT22;68;48.792;9.164;2023-07-09T13:37:12;35.60;37.90
152;DHT22;68;48.792;9.164;2023-07-09T13:39:39;35.50;37.00
152;DHT22;68;48.792;9.164;2023-07-09T13:42:12;35.50;36.40
152;DHT22;68;48.792;9.164;2023-07-09T13:44:40;35.40;35.80
152;DHT22;68;48.792;9.164;2023-07-09T13:47:11;35.30;36.10
152;DHT22;68;48.792;9.164;2023-07-09T13:49:38;35.40;37.00
152;DHT22;68;48.792;9.164;2023-07-09T13:52:08;35.50;37.10
152;DHT22;68;48.792;9.164;2023-07-09T13:54:35;35.50;35.60
152;DHT22;68;48.792;9.164;2023-07-09T13:59:32;35.20;36.80
152;DHT22;68;48.792;9.164;2023-07-09T14:01:59;35.30;36.70
152;DHT22;68;48.792;9.164;2023-07-09T14:04:27;35.50;36.80
152;DHT22;68;48.792;9.164;2023-07-09T14:06:54;35.50;38.10
152;DHT22;68;48.792;9.164;2023-07-09T14:09:21;35.50;37.40
152;DHT22;68;48.792;9.164;2023-07-09T14:11:50;35.50;39.70
152;DHT22;68;48.792;9.164;2023-07-09T14:14:18;35.30;37.20
152;DHT22;68;48.792;9.164;2023-07-09T14:16:49;35.10;38.00
152;DHT22;68;48.792;9.164;2023-07-09T14:19:17;35.00;38.30
152;DHT22;68;48.792;9.164;2023-07-09T14:21:45;35.10;40.60
152;DHT22;68;48.792;9.164;2023-07-09T14:24:18;34.90;38.30
152;DHT22;68;48.792;9.164;2023-07-09T14:26:46;35.10;38.50
152;DHT22;68;48.792;9.164;2023-07-09T14:29:13;35.10;39.30
152;DHT22;68;48.792;9.164;2023-07-09T14:31:41;35.10;39.20
152;DHT22;68;48.792;9.164;2023-07-09T14:34:18;35.40;40.40
152;DHT22;68;48.792;9.164;2023-07-09T14:36:45;35.40;37.30
152;DHT22;68;48.792;9.164;2023-07-09T14:39:12;35.50;39.00
152;DHT22;68;48.792;9.164;2023-07-09T14:41:40;35.80;38.30
152;DHT22;68;48.792;9.164;2023-07-09T14:44:19;35.60;40.40
152;DHT22;68;48.792;9.164;2023-07-09T14:46:48;35.80;38.70
152;DHT22;68;48.792;9.164;2023-07-09T14:49:16;35.90;39.00
152;DHT22;68;48.792;9.164;2023-07-09T14:51:43;35.90;38.50
152;DHT22;68;48.792;9.164;2023-07-09T14:54:18;35.80;38.90
152;DHT22;68;48.792;9.164;2023-07-09T14:56:45;36.10;38.00
152;DHT22;68;48.792;9.164;2023-07-09T14:59:11;36.20;37.90
152;DHT22;68;48.792;9.164;2023-07-09T15:01:38;36.10;35.80
152;DHT22;68;48.792;9.164;2023-07-09T15:04:25;35.90;37.30
152;DHT22;68;48.792;9.164;2023-07-09T15:06:54;35.90;37.80
152;DHT22;68;48.792;9.164;2023-07-09T15:09:22;35.90;36.40
152;DHT22;68;48.792;9.164;2023-07-09T15:11:51;35.50;37.50
152;DHT22;68;48.792;9.164;2023-07-09T15:14:18;35.20;37.10
152;DHT22;68;48.792;9.164;2023-07-09T15:16:46;35.20;39.30
152;DHT22;68;48.792;9.164;2023-07-09T15:19:13;35.00;37.90
152;DHT22;68;48.792;9.164;2023-07-09T15:21:41;35.00;38.30
152;DHT22;68;48.792;9.164;2023-07-09T15:24:11;35.00;38.50
152;DHT22;68;48.792;9.164;2023-07-09T15:26:39;35.00;39.20
152;DHT22;68;48.792;9.164;2023-07-09T15:29:10;34.90;38.30
152;DHT22;68;48.792;9.164;2023-07-09T15:31:40;35.00;39.40
152;DHT22;68;48.792;9.164;2023-07-09T15:34:06;34.70;37.40
152;DHT22;68;48.792;9.164;2023-07-09T15:36:33;34.70;38.30
152;DHT22;68;48.792;9.164;2023-07-09T15:39:01;34.60;39.50
152;DHT22;68;48.792;9.164;2023-07-09T15:41:28;34.60;38.10
152;DHT22;68;48.792;9.164;2023-07-09T15:43:55;34.60;38.80
152;DHT22;68;48.792;9.164;2023-07-09T15:46:22;34.30;37.50
152;DHT22;68;48.792;9.164;2023-07-09T15:48:50;34.40;38.10
152;DHT22;68;48.792;9.164;2023-07-09T15:51:17;34.60;38.50
152;DHT22;68;48.792;9.164;2023-07-09T15:53:44;34.80;39.40
152;DHT22;68;48.792;9.164;2023-07-09T15:56:18;35.00;38.30
152;DHT22;68;48.792;9.164;2023-07-09T15:58:47;34.90;38.10
152;DHT22;68;48.792;9.164;2023-07-09T16:01:15;34.90;38.40
152;DHT22;68;48.792;9.164;2023-07-09T16:03:46;35.00;38.30
152;DHT22;68;48.792;9.164;2023-07-09T16:06:13;34.70;38.40
152;DHT22;68;48.792;9.164;2023-07-09T16:08:39;34.70;39.00
152;DHT22;68;48.792;9.164;2023-07-09T16:11:15;35.00;38.90
152;DHT22;68;48.792;9.164;2023-07-09T16:13:42;35.10;38.40
152;DHT22;68;48.792;9.164;2023-07-09T16:16:13;35.00;38.00
152;DHT22;68;48.792;9.164;2023-07-09T16:18:40;35.00;38.70
152;DHT22;68;48.792;9.164;2023-07-09T16:21:18;34.80;40.90
152;DHT22;68;48.792;9.164;2023-07-09T16:23:47;34.70;42.00
152;DHT22;68;48.792;9.164;2023-07-09T16:26:15;34.50;40.50
152;DHT22;68;48.792;9.164;2023-07-09T16:28:42;34.40;41.20
152;DHT22;68;48.792;9.164;2023-07-09T16:31:09;34.20;40.00
152;DHT22;68;48.792;9.164;2023-07-09T16:33:36;34.40;41.60
152;DHT22;68;48.792;9.164;2023-07-09T16:36:03;34.50;41.20
152;DHT22;68;48.792;9.164;2023-07-09T16:38:32;34.50;40.30
152;DHT22;68;48.792;9.164;2023-07-09T16:41:01;34.50;40.80
152;DHT22;68;48.792;9.164;2023-07-09T16:43:29;34.20;41.60
152;DHT22;68;48.792;9.164;2023-07-09T16:45:56;33.90;42.20
152;DHT22;68;48.792;9.164;2023-07-09T16:48:23;33.60;42.70
152;DHT22;68;48.792;9.164;2023-07-09T16:50:53;33.50;41.50
152;DHT22;68;48.792;9.164;2023-07-09T16:53:21;33.50;42.10
152;DHT22;68;48.792;9.164;2023-07-09T16:55:48;33.40;42.40
152;DHT22;68;48.792;9.164;2023-07-09T16:58:24;33.30;42.10
152;DHT22;68;48.792;9.164;2023-07-09T17:00:54;33.40;43.10
152;DHT22;68;48.792;9.164;2023-07-09T17:03:20;33.40;43.10
152;DHT22;68;48.792;9.164;2023-07-09T17:05:47;33.50;42.40
152;DHT22;68;48.792;9.164;2023-07-09T17:08:14;33.50;43.00
152;DHT22;68;48.792;9.164;2023-07-09T17:10:42;33.70;40.20
152;DHT22;68;48.792;9.164;2023-07-09T17:13:14;33.90;40.90
152;DHT22;68;48.792;9.164;2023-07-09T17:15:43;34.10;40.40
152;DHT22;68;48.792;9.164;2023-07-09T17:18:18;34.10;40.80
152;DHT22;68;48.792;9.164;2023-07-09T17:20:45;34.00;40.10
152;DHT22;68;48.792;9.164;2023-07-09T17:23:12;34.10;40.20
152;DHT22;68;48.792;9.164;2023-07-09T17:25:40;34.10;39.50
152;DHT22;68;48.792;9.164;2023-07-09T17:28:14;34.10;39.30
152;DHT22;68;48.792;9.164;2023-07-09T17:30:41;34.00;39.10
152;DHT22;68;48.792;9.164;2023-07-09T17:33:08;34.00;38.30
152;DHT22;68;48.792;9.164;2023-07-09T17:35:37;34.00;38.40
152;DHT22;68;48.792;9.164;2023-07-09T17:38:04;34.10;39.20